createdAt,value
2023-03-29T00:00:01.791Z,25.02
2023-03-29T00:02:41.504Z,22.85
2023-03-29T00:05:13.816Z,21.50
2023-03-29T00:07:44.137Z,21.13
2023-03-29T00:10:15.418Z,20.05
2023-03-29T00:12:45.604Z,35.78
2023-03-29T00:15:15.723Z,34.03
2023-03-29T00:17:45.885Z,28.83
2023-03-29T00:20:16.134Z,28.63
2023-03-29T00:22:48.354Z,22.38
2023-03-29T00:25:18.679Z,23.13
2023-03-29T00:27:48.898Z,24.70
2023-03-29T00:30:19.152Z,26.52
2023-03-29T00:32:49.335Z,25.00
2023-03-29T00:35:19.616Z,22.63
2023-03-29T00:37:52.255Z,22.52
2023-03-29T00:40:22.847Z,21.10
2023-03-29T00:42:52.949Z,19.85
2023-03-29T00:45:32.066Z,19.98
2023-03-29T00:48:07.588Z,20.27
2023-03-29T00:50:40.899Z,20.40
2023-03-29T00:53:20.598Z,19.30
2023-03-29T00:56:03.116Z,19.77
2023-03-29T00:58:37.518Z,25.95
2023-03-29T01:01:15.234Z,19.92
2023-03-29T01:03:48.823Z,21.15
2023-03-29T01:06:21.111Z,19.63
2023-03-29T01:08:55.271Z,19.45
2023-03-29T01:11:31.390Z,23.65
2023-03-29T01:14:05.327Z,20.55
2023-03-29T01:16:39.907Z,19.73
2023-03-29T01:19:13.128Z,19.63
2023-03-29T01:21:47.555Z,20.45
2023-03-29T01:27:27.031Z,24.63
2023-03-29T01:30:01.806Z,29.17
2023-03-29T01:32:38.133Z,21.60
2023-03-29T01:35:15.833Z,21.38
2023-03-29T01:38:05.719Z,19.83
2023-03-29T01:40:36.348Z,21.02
2023-03-29T01:43:26.416Z,20.95
2023-03-29T01:46:16.688Z,20.92
2023-03-29T01:48:56.978Z,21.73
2023-03-29T01:51:31.939Z,22.95
2023-03-29T01:54:06.270Z,22.27
2023-03-29T01:56:38.353Z,21.77
2023-03-29T01:59:14.640Z,21.30
2023-03-29T02:01:56.059Z,22.17
2023-03-29T02:04:38.667Z,22.02
2023-03-29T02:07:10.395Z,20.55
2023-03-29T02:09:41.358Z,20.80
2023-03-29T02:12:12.926Z,19.65
2023-03-29T02:14:43.588Z,20.30
2023-03-29T02:17:33.606Z,20.75
2023-03-29T02:20:18.716Z,20.08
2023-03-29T02:23:00.150Z,21.42
2023-03-29T02:25:31.099Z,20.90
2023-03-29T02:28:02.804Z,22.00
2023-03-29T02:30:38.193Z,23.00
2023-03-29T02:33:23.399Z,21.23
2023-03-29T02:36:07.405Z,21.98
2023-03-29T02:38:37.875Z,21.92
2023-03-29T02:41:08.865Z,23.90
2023-03-29T02:43:39.715Z,23.50
2023-03-29T02:46:11.077Z,25.08
2023-03-29T02:48:41.443Z,22.63
2023-03-29T02:51:15.289Z,22.77
2023-03-29T02:53:51.698Z,21.95
2023-03-29T02:56:23.150Z,20.25
2023-03-29T02:58:53.086Z,21.08
2023-03-29T03:01:24.606Z,22.67
2023-03-29T03:03:55.311Z,21.23
2023-03-29T03:06:25.933Z,22.70
2023-03-29T03:08:56.255Z,22.95
2023-03-29T03:11:26.451Z,21.02
2023-03-29T03:13:56.958Z,19.80
2023-03-29T03:16:27.905Z,19.50
2023-03-29T03:18:58.210Z,18.17
2023-03-29T03:21:30.135Z,17.98
2023-03-29T03:24:02.541Z,17.85
2023-03-29T03:26:32.632Z,17.90
2023-03-29T03:29:02.762Z,17.27
2023-03-29T03:31:54.257Z,17.85
2023-03-29T03:34:43.993Z,18.27
2023-03-29T03:37:14.296Z,17.73
2023-03-29T03:39:44.954Z,19.15
2023-03-29T03:42:15.363Z,19.10
2023-03-29T03:44:47.536Z,20.50
2023-03-29T03:47:39.161Z,26.02
2023-03-29T03:50:22.840Z,33.05
2023-03-29T03:52:53.654Z,35.63
2023-03-29T03:55:24.460Z,30.67
2023-03-29T03:58:05.566Z,21.05
2023-03-29T04:00:36.187Z,21.90
2023-03-29T04:03:26.078Z,20.90
2023-03-29T04:05:57.230Z,21.20
2023-03-29T04:08:30.464Z,20.27
2023-03-29T04:11:08.962Z,19.88
2023-03-29T04:13:43.779Z,19.98
2023-03-29T04:16:33.506Z,19.45
2023-03-29T04:19:17.869Z,20.10
2023-03-29T04:21:54.045Z,18.58
2023-03-29T04:24:26.617Z,19.08
2023-03-29T04:27:16.336Z,18.95
2023-03-29T04:29:46.889Z,17.92
2023-03-29T04:32:26.225Z,18.67
2023-03-29T04:35:06.302Z,18.27
2023-03-29T04:37:37.072Z,18.05
2023-03-29T04:40:10.328Z,18.02
2023-03-29T04:42:53.279Z,17.73
2023-03-29T04:45:24.207Z,16.85
2023-03-29T04:48:13.784Z,18.20
2023-03-29T04:50:50.097Z,16.85
2023-03-29T04:53:22.250Z,17.45
2023-03-29T04:55:54.253Z,16.42
2023-03-29T04:58:45.721Z,17.70
2023-03-29T05:01:16.261Z,15.25
2023-03-29T05:03:53.995Z,14.48
2023-03-29T05:06:30.845Z,14.70
2023-03-29T05:09:02.732Z,14.88
2023-03-29T05:11:44.371Z,15.57
2023-03-29T05:14:16.291Z,13.60
2023-03-29T05:16:47.744Z,15.05
2023-03-29T05:19:18.494Z,13.70
2023-03-29T05:21:52.553Z,14.00
2023-03-29T05:24:25.522Z,13.48
2023-03-29T05:27:05.374Z,13.27
2023-03-29T05:29:39.022Z,13.77
2023-03-29T05:32:24.650Z,13.25
2023-03-29T05:34:55.332Z,12.48
2023-03-29T05:37:25.947Z,12.30
2023-03-29T05:40:05.762Z,12.90
2023-03-29T05:42:45.127Z,11.90
2023-03-29T05:45:15.406Z,11.85
2023-03-29T05:47:45.594Z,13.30
2023-03-29T05:50:16.205Z,12.57
2023-03-29T05:52:47.532Z,11.70
2023-03-29T05:55:17.692Z,11.85
2023-03-29T05:57:49.156Z,12.10
2023-03-29T06:00:25.280Z,13.65
2023-03-29T06:03:17.694Z,12.07
2023-03-29T06:05:57.861Z,12.05
2023-03-29T06:08:29.220Z,12.43
2023-03-29T06:11:17.137Z,12.52
2023-03-29T06:14:07.832Z,11.77
2023-03-29T06:16:44.716Z,13.27
2023-03-29T06:19:16.054Z,11.70
2023-03-29T06:21:47.098Z,12.98
2023-03-29T06:24:22.236Z,13.95
2023-03-29T06:27:01.307Z,13.63
2023-03-29T06:29:33.225Z,12.75
2023-03-29T06:32:03.657Z,13.27
2023-03-29T06:34:48.320Z,13.40
2023-03-29T06:37:38.402Z,13.82
2023-03-29T06:40:28.835Z,13.75
2023-03-29T06:43:02.412Z,13.20
2023-03-29T06:45:52.043Z,13.50
2023-03-29T06:48:29.417Z,14.00
2023-03-29T06:51:00.452Z,13.68
2023-03-29T06:53:33.214Z,14.10
2023-03-29T06:56:10.399Z,14.52
2023-03-29T06:58:44.325Z,13.77
2023-03-29T07:01:32.365Z,14.30
2023-03-29T07:04:10.320Z,13.38
2023-03-29T07:07:03.118Z,15.95
2023-03-29T07:09:37.530Z,16.20
2023-03-29T07:12:27.952Z,15.63
2023-03-29T07:15:02.187Z,17.40
2023-03-29T07:17:51.948Z,17.33
2023-03-29T07:20:24.451Z,15.80
2023-03-29T07:23:06.013Z,15.15
2023-03-29T07:25:36.621Z,16.10
2023-03-29T07:28:07.753Z,16.83
2023-03-29T07:30:38.751Z,16.10
2023-03-29T07:33:18.562Z,16.42
2023-03-29T07:35:56.848Z,16.52
2023-03-29T07:38:28.827Z,17.50
2023-03-29T07:41:07.549Z,17.35
2023-03-29T07:43:47.275Z,18.15
2023-03-29T07:46:21.226Z,19.20
2023-03-29T07:48:52.833Z,18.05
2023-03-29T07:51:23.919Z,18.52
2023-03-29T07:54:07.931Z,18.00
2023-03-29T07:56:57.960Z,17.77
2023-03-29T07:59:46.822Z,17.13
2023-03-29T08:02:23.805Z,17.65
2023-03-29T08:04:58.598Z,19.45
2023-03-29T08:07:48.940Z,17.75
2023-03-29T08:10:41.049Z,17.48
2023-03-29T08:13:30.938Z,17.10
2023-03-29T08:16:21.228Z,16.13
2023-03-29T08:19:01.243Z,18.75
2023-03-29T08:21:47.094Z,17.77
2023-03-29T08:24:20.425Z,16.55
2023-03-29T08:26:56.298Z,17.00
2023-03-29T08:29:27.699Z,15.40
2023-03-29T08:31:58.725Z,16.40
2023-03-29T08:34:29.125Z,16.25
2023-03-29T08:37:19.398Z,15.25
2023-03-29T08:39:51.781Z,15.93
2023-03-29T08:43:01.222Z,15.98
2023-03-29T08:45:52.482Z,15.25
2023-03-29T08:48:30.178Z,14.10
2023-03-29T08:51:10.179Z,14.90
2023-03-29T08:53:46.772Z,14.50
2023-03-29T08:56:34.225Z,14.68
2023-03-29T08:59:31.032Z,15.15
2023-03-29T09:02:05.712Z,14.90
2023-03-29T09:04:39.281Z,14.45
2023-03-29T09:07:29.619Z,14.68
2023-03-29T09:10:00.284Z,15.60
2023-03-29T09:12:56.189Z,16.02
2023-03-29T09:15:33.300Z,16.20
2023-03-29T09:18:39.293Z,16.08
2023-03-29T09:21:29.669Z,15.93
2023-03-29T09:24:19.881Z,16.02
2023-03-29T09:26:59.035Z,15.68
2023-03-29T09:29:38.858Z,15.90
2023-03-29T09:32:18.409Z,15.23
2023-03-29T09:34:56.102Z,15.45
2023-03-29T09:37:36.860Z,15.32
2023-03-29T09:40:12.803Z,16.50
2023-03-29T09:42:56.317Z,19.48
2023-03-29T09:45:26.487Z,23.75
2023-03-29T09:48:08.005Z,17.73
2023-03-29T09:50:40.966Z,14.77
2023-03-29T09:53:13.427Z,14.55
2023-03-29T09:55:50.682Z,14.70
2023-03-29T09:58:29.868Z,13.52
2023-03-29T10:01:01.737Z,15.25
2023-03-29T10:03:35.236Z,15.73
2023-03-29T10:06:19.059Z,15.32
2023-03-29T10:09:00.463Z,15.27
2023-03-29T10:11:44.742Z,14.88
2023-03-29T10:14:23.044Z,15.05
2023-03-29T10:16:58.349Z,15.27
2023-03-29T10:19:32.789Z,14.60
2023-03-29T10:22:05.977Z,14.35
2023-03-29T10:24:36.453Z,15.18
2023-03-29T10:27:07.143Z,14.93
2023-03-29T10:29:38.801Z,14.88
2023-03-29T10:32:26.243Z,14.65
2023-03-29T10:34:57.233Z,16.67
2023-03-29T10:37:28.617Z,19.38
2023-03-29T10:39:59.124Z,18.92
2023-03-29T10:42:30.112Z,19.73
2023-03-29T10:45:01.169Z,19.80
2023-03-29T10:47:35.845Z,20.83
2023-03-29T10:50:09.052Z,21.67
2023-03-29T10:52:39.619Z,18.92
2023-03-29T10:55:12.870Z,19.30
2023-03-29T10:58:02.576Z,18.45
2023-03-29T11:00:42.914Z,19.92
2023-03-29T11:03:33.036Z,19.50
2023-03-29T11:06:23.104Z,18.55
2023-03-29T11:09:07.077Z,18.23
2023-03-29T11:12:12.266Z,17.63
2023-03-29T11:14:57.078Z,17.73
2023-03-29T11:17:41.232Z,16.98
2023-03-29T11:20:31.765Z,19.70
2023-03-29T11:23:20.276Z,16.60
2023-03-29T11:26:10.332Z,17.02
2023-03-29T11:28:48.377Z,17.38
2023-03-29T11:31:27.421Z,17.90
2023-03-29T11:34:17.833Z,17.35
2023-03-29T11:36:56.912Z,17.88
2023-03-29T11:39:47.708Z,17.95
2023-03-29T11:42:26.208Z,17.35
2023-03-29T11:44:57.316Z,18.73
2023-03-29T11:47:30.981Z,19.02
2023-03-29T11:50:03.683Z,19.00
2023-03-29T11:52:40.241Z,18.10
2023-03-29T11:55:19.684Z,17.63
2023-03-29T11:58:01.898Z,17.23
2023-03-29T12:00:40.424Z,17.67
2023-03-29T12:03:30.927Z,20.48
2023-03-29T12:06:06.076Z,18.98
2023-03-29T12:08:46.489Z,18.65
2023-03-29T12:11:36.164Z,19.52
2023-03-29T12:14:17.093Z,18.85
2023-03-29T12:17:07.032Z,17.95
2023-03-29T12:19:44.352Z,19.67
2023-03-29T12:22:14.512Z,24.45
2023-03-29T12:24:50.515Z,19.58
2023-03-29T12:27:40.558Z,19.08
2023-03-29T12:30:32.031Z,19.63
2023-03-29T12:33:23.195Z,19.75
2023-03-29T12:36:33.483Z,19.05
2023-03-29T12:39:24.599Z,19.73
2023-03-29T12:42:21.722Z,19.77
2023-03-29T12:45:31.128Z,20.98
2023-03-29T12:48:02.836Z,20.58
2023-03-29T12:50:44.430Z,22.02
2023-03-29T12:53:27.447Z,20.77
2023-03-29T12:56:18.371Z,19.00
2023-03-29T12:59:09.228Z,19.52
2023-03-29T13:01:42.798Z,21.33
2023-03-29T13:04:21.400Z,20.98
2023-03-29T13:06:57.802Z,21.92
2023-03-29T13:09:32.780Z,20.73
2023-03-29T13:12:11.121Z,20.77
2023-03-29T13:14:44.496Z,20.85
2023-03-29T13:17:34.493Z,19.50
2023-03-29T13:20:17.160Z,20.65
2023-03-29T13:23:01.610Z,20.40
2023-03-29T13:25:52.026Z,20.10
2023-03-29T13:28:42.148Z,20.98
2023-03-29T13:31:32.321Z,19.70
2023-03-29T13:34:22.625Z,20.30
2023-03-29T13:37:12.862Z,19.70
2023-03-29T13:40:07.439Z,19.50
2023-03-29T13:42:44.935Z,25.92
2023-03-29T13:45:26.426Z,25.13
2023-03-29T13:48:07.895Z,24.38
2023-03-29T13:50:39.883Z,22.10
2023-03-29T13:53:27.035Z,21.83
2023-03-29T13:56:00.987Z,26.52
2023-03-29T13:58:59.172Z,29.05
2023-03-29T14:01:45.037Z,25.20
2023-03-29T14:04:35.716Z,21.20
2023-03-29T14:07:06.712Z,19.38
2023-03-29T14:09:38.598Z,19.88
2023-03-29T14:12:09.580Z,19.08
2023-03-29T14:14:48.372Z,19.52
2023-03-29T14:17:28.372Z,19.15
2023-03-29T14:20:01.072Z,18.33
2023-03-29T14:22:35.958Z,19.08
2023-03-29T14:25:15.384Z,19.15
2023-03-29T14:27:47.660Z,19.05
2023-03-29T14:30:36.054Z,19.67
2023-03-29T14:33:06.708Z,19.25
2023-03-29T14:35:37.071Z,19.20
2023-03-29T14:38:07.195Z,21.40
2023-03-29T14:40:37.277Z,20.63
2023-03-29T14:43:09.833Z,19.77
2023-03-29T14:45:40.496Z,18.60
2023-03-29T14:48:12.976Z,19.13
2023-03-29T14:50:44.222Z,19.17
2023-03-29T14:53:19.956Z,22.35
2023-03-29T14:55:54.547Z,24.83
2023-03-29T14:58:31.810Z,25.55
2023-03-29T15:01:06.843Z,28.80
2023-03-29T15:03:57.778Z,27.88
2023-03-29T15:06:28.866Z,21.75
2023-03-29T15:09:06.000Z,23.42
2023-03-29T15:11:41.290Z,23.33
2023-03-29T15:14:17.119Z,23.98
2023-03-29T15:16:49.467Z,24.33
2023-03-29T15:19:22.906Z,110.53
2023-03-29T15:21:53.703Z,95.32
2023-03-29T15:24:31.312Z,93.20
2023-03-29T15:27:14.161Z,36.47
2023-03-29T15:29:45.377Z,41.15
2023-03-29T15:32:25.784Z,35.15
2023-03-29T15:35:03.049Z,46.20
2023-03-29T15:37:34.277Z,72.35
2023-03-29T15:40:11.296Z,49.85
2023-03-29T15:42:41.523Z,59.22
2023-03-29T15:45:21.481Z,65.63
2023-03-29T15:47:51.826Z,51.22
2023-03-29T15:50:22.157Z,48.60
2023-03-29T15:52:52.912Z,47.58
2023-03-29T15:55:24.204Z,49.78
2023-03-29T15:57:56.255Z,43.45
2023-03-29T16:00:27.302Z,42.42
2023-03-29T16:02:58.864Z,45.35
2023-03-29T16:05:29.104Z,41.88
2023-03-29T16:08:01.060Z,28.98
2023-03-29T16:10:31.191Z,85.30
2023-03-29T16:13:01.697Z,32.88
2023-03-29T16:15:33.869Z,80.43
2023-03-29T16:18:04.129Z,76.28
2023-03-29T16:20:34.318Z,75.25
2023-03-29T16:23:10.255Z,30.67
2023-03-29T16:25:42.450Z,61.95
2023-03-29T16:28:12.641Z,29.58
2023-03-29T16:30:42.902Z,27.25
2023-03-29T16:33:14.792Z,28.17
2023-03-29T16:35:45.082Z,27.55
2023-03-29T16:38:15.800Z,28.60
2023-03-29T16:40:46.644Z,33.17
2023-03-29T16:43:17.710Z,30.05
2023-03-29T16:45:48.167Z,26.60
2023-03-29T16:48:19.697Z,31.00
2023-03-29T16:50:53.420Z,29.02
2023-03-29T16:53:25.355Z,30.35
2023-03-29T16:55:55.768Z,28.92
2023-03-29T16:58:26.520Z,31.00
2023-03-29T17:00:58.491Z,31.90
2023-03-29T17:03:29.290Z,30.42
2023-03-29T17:06:00.905Z,31.27
2023-03-29T17:08:31.165Z,30.33
2023-03-29T17:11:01.734Z,30.83
2023-03-29T17:13:32.618Z,32.90
2023-03-29T17:16:03.286Z,34.55
2023-03-29T17:18:34.009Z,32.65
2023-03-29T17:21:04.612Z,32.85
2023-03-29T17:23:35.518Z,33.15
2023-03-29T17:26:07.481Z,35.50
2023-03-29T17:28:38.688Z,33.40
2023-03-29T17:31:09.576Z,33.90
2023-03-29T17:33:40.219Z,34.50
2023-03-29T17:36:10.950Z,31.63
2023-03-29T17:38:41.136Z,32.92
2023-03-29T17:41:11.510Z,34.03
2023-03-29T17:43:42.459Z,35.72
2023-03-29T17:46:13.425Z,33.92
2023-03-29T17:48:44.113Z,35.75
2023-03-29T17:51:14.656Z,36.35
2023-03-29T17:53:44.578Z,35.13
2023-03-29T17:56:15.535Z,36.15
2023-03-29T17:58:45.848Z,35.55
2023-03-29T18:01:16.172Z,36.35
2023-03-29T18:03:48.261Z,34.33
2023-03-29T18:06:21.145Z,34.67
2023-03-29T18:08:51.636Z,34.65
2023-03-29T18:11:24.254Z,40.53
2023-03-29T18:13:55.006Z,36.08
2023-03-29T18:16:25.568Z,34.72
2023-03-29T18:18:56.088Z,35.03
2023-03-29T18:21:27.696Z,38.67
2023-03-29T18:23:58.230Z,37.95
2023-03-29T18:26:29.987Z,38.97
2023-03-29T18:29:00.847Z,39.58
2023-03-29T18:31:31.964Z,41.75
2023-03-29T18:34:02.704Z,47.42
2023-03-29T18:36:36.884Z,57.17
2023-03-29T18:39:07.529Z,61.70
2023-03-29T18:41:39.428Z,57.03
2023-03-29T18:44:09.670Z,58.47
2023-03-29T18:46:39.911Z,54.88
2023-03-29T18:49:10.325Z,52.05
2023-03-29T18:51:40.939Z,51.70
2023-03-29T18:54:13.880Z,45.35
2023-03-29T18:56:44.033Z,48.47
2023-03-29T18:59:14.590Z,44.45
2023-03-29T19:01:45.171Z,46.05
2023-03-29T19:04:15.953Z,49.30
2023-03-29T19:06:46.354Z,46.47
2023-03-29T19:09:16.521Z,46.25
2023-03-29T19:11:49.397Z,46.25
2023-03-29T19:14:24.850Z,55.50
2023-03-29T19:16:55.091Z,49.38
2023-03-29T19:19:27.862Z,44.30
2023-03-29T19:22:00.401Z,41.47
2023-03-29T19:24:31.447Z,41.38
2023-03-29T19:27:03.283Z,38.50
2023-03-29T19:29:34.059Z,37.92
2023-03-29T19:32:04.966Z,39.90
2023-03-29T19:34:35.542Z,38.80
2023-03-29T19:37:05.894Z,40.53
2023-03-29T19:39:37.546Z,43.40
2023-03-29T19:42:07.798Z,41.17
2023-03-29T19:44:39.854Z,42.53
2023-03-29T19:47:10.627Z,40.70
2023-03-29T19:49:41.213Z,43.22
2023-03-29T19:52:12.181Z,41.10
2023-03-29T19:54:42.706Z,43.42
2023-03-29T19:57:12.895Z,39.47
2023-03-29T19:59:44.659Z,37.80
2023-03-29T20:02:15.103Z,39.88
2023-03-29T20:04:45.291Z,40.55
2023-03-29T20:07:15.226Z,41.03
2023-03-29T20:09:45.457Z,41.15
2023-03-29T20:12:16.232Z,39.85
2023-03-29T20:14:46.865Z,40.53
2023-03-29T20:17:17.054Z,42.92
2023-03-29T20:19:47.283Z,39.85
2023-03-29T20:22:17.623Z,41.20
2023-03-29T20:24:48.069Z,42.60
2023-03-29T20:27:18.601Z,39.35
2023-03-29T20:29:50.533Z,42.72
2023-03-29T20:32:20.878Z,45.00
2023-03-29T20:34:51.482Z,49.55
2023-03-29T20:37:24.492Z,45.60
2023-03-29T20:39:54.994Z,48.42
2023-03-29T20:42:25.987Z,44.80
2023-03-29T20:44:57.624Z,46.33
2023-03-29T20:47:29.017Z,45.22
2023-03-29T20:49:59.568Z,47.45
2023-03-29T20:52:29.735Z,45.50
2023-03-29T20:55:00.701Z,44.83
2023-03-29T20:57:31.167Z,47.40
2023-03-29T21:00:01.506Z,47.80
2023-03-29T21:02:35.036Z,44.72
2023-03-29T21:05:05.756Z,45.75
2023-03-29T21:07:36.312Z,46.92
2023-03-29T21:10:06.774Z,44.72
2023-03-29T21:12:36.769Z,45.72
2023-03-29T21:15:07.452Z,44.90
2023-03-29T21:17:38.005Z,46.65
2023-03-29T21:20:11.795Z,45.67
2023-03-29T21:22:44.482Z,47.13
2023-03-29T21:25:17.359Z,43.70
2023-03-29T21:27:47.954Z,49.15
2023-03-29T21:30:18.647Z,50.03
2023-03-29T21:32:49.585Z,50.13
2023-03-29T21:35:19.837Z,46.67
2023-03-29T21:37:50.076Z,49.38
2023-03-29T21:40:20.295Z,49.22
2023-03-29T21:42:50.803Z,48.25
2023-03-29T21:45:20.809Z,49.13
2023-03-29T21:47:51.648Z,47.97
2023-03-29T21:50:25.572Z,47.13
2023-03-29T21:52:56.260Z,48.15
2023-03-29T21:55:26.438Z,47.63
2023-03-29T21:57:57.250Z,44.97
2023-03-29T22:00:27.921Z,48.97
2023-03-29T22:02:58.858Z,47.30
2023-03-29T22:05:29.184Z,49.17
2023-03-29T22:08:00.359Z,50.08
2023-03-29T22:10:31.086Z,52.30
2023-03-29T22:13:02.202Z,46.20
2023-03-29T22:15:37.020Z,46.42
2023-03-29T22:18:07.614Z,45.88
2023-03-29T22:20:37.706Z,46.50
2023-03-29T22:23:07.673Z,50.33
2023-03-29T22:25:39.482Z,48.45
2023-03-29T22:28:09.624Z,49.83
2023-03-29T22:30:39.977Z,50.83
2023-03-29T22:33:09.977Z,51.00
2023-03-29T22:35:40.238Z,47.50
2023-03-29T22:38:10.806Z,44.60
2023-03-29T22:40:42.734Z,50.92
2023-03-29T22:43:13.230Z,50.20
2023-03-29T22:45:43.226Z,49.40
2023-03-29T22:48:13.501Z,50.47
2023-03-29T22:50:44.704Z,50.63
2023-03-29T22:53:14.893Z,52.72
2023-03-29T22:55:47.718Z,51.00
2023-03-29T22:58:18.294Z,48.97
2023-03-29T23:00:48.573Z,51.13
2023-03-29T23:03:19.152Z,50.97
2023-03-29T23:06:00.104Z,51.65
2023-03-29T23:08:31.750Z,51.15
2023-03-29T23:11:02.884Z,48.38
2023-03-29T23:13:34.882Z,49.42
2023-03-29T23:16:06.422Z,51.95
2023-03-29T23:18:38.886Z,54.58
2023-03-29T23:21:10.780Z,63.53
2023-03-29T23:23:40.717Z,50.90
2023-03-29T23:26:10.932Z,52.95
2023-03-29T23:28:42.604Z,52.40
2023-03-29T23:31:14.323Z,50.17
2023-03-29T23:33:44.909Z,52.45
2023-03-29T23:36:17.326Z,54.38
2023-03-29T23:38:49.293Z,48.50
2023-03-29T23:41:19.414Z,46.33
2023-03-29T23:43:52.127Z,67.32
2023-03-29T23:46:22.949Z,65.18
2023-03-29T23:48:53.851Z,59.10
2023-03-29T23:51:24.370Z,50.15
2023-03-29T23:53:54.583Z,55.03
2023-03-29T23:56:27.166Z,49.90
2023-03-29T23:58:57.778Z,47.22
